Time;durP1;ratioP1;P1;durP2;ratioP2;P2;SDS_P1;SDS_P2;PMS_P1;PMS_P2;Temp;Humidity;BMP_temperature;BMP_pressure;BME280_temperature;BME280_humidity;BME280_pressure;Samples;Min_cycle;Max_cycle;Signal;HPM_P1;HPM_P2
2024/03/09 00:00:19;;;;;;;0.70;0.70;;;;;;;;;;4880191;29;20033;-62
2024/03/09 00:02:44;;;;;;;0.73;0.73;;;;;;;;;;4880346;29;20043;-62
2024/03/09 00:05:09;;;;;;;1.63;1.00;;;;;;;;;;4879845;29;20494;-63
2024/03/09 00:07:36;;;;;;;1.03;1.03;;;;;;;;;;4880067;29;20037;-63
2024/03/09 00:10:02;;;;;;;0.95;0.95;;;;;;;;;;4879645;29;20123;-62
2024/03/09 00:12:28;;;;;;;0.80;0.77;;;;;;;;;;4880051;29;20050;-63
2024/03/09 00:14:53;;;;;;;0.55;0.40;;;;;;;;;;4880145;29;20183;-62
2024/03/09 00:17:18;;;;;;;0.95;0.95;;;;;;;;;;4879764;29;20024;-63
2024/03/09 00:19:44;;;;;;;0.73;0.70;;;;;;;;;;4872068;29;20025;-62
2024/03/09 00:22:10;;;;;;;0.52;0.52;;;;;;;;;;4879917;29;20641;-62
2024/03/09 00:24:35;;;;;;;3.25;1.58;;;;;;;;;;4879369;29;20040;-62
2024/03/09 00:27:00;;;;;;;0.67;0.67;;;;;;;;;;4879711;29;20052;-63
2024/03/09 00:29:25;;;;;;;0.40;0.40;;;;;;;;;;4879637;29;20549;-62
2024/03/09 00:31:51;;;;;;;0.52;0.52;;;;;;;;;;4879585;29;20316;-62
2024/03/09 00:34:19;;;;;;;0.15;0.15;;;;;;;;;;4879609;29;20029;-62
2024/03/09 00:36:45;;;;;;;1.70;1.17;;;;;;;;;;4879594;29;20029;-62
2024/03/09 00:39:11;;;;;;;0.65;0.30;;;;;;;;;;4879599;29;20478;-62
2024/03/09 00:41:36;;;;;;;0.10;0.10;;;;;;;;;;4879705;29;20066;-62
2024/03/09 00:44:04;;;;;;;0.75;0.68;;;;;;;;;;4879247;29;20072;-63
2024/03/09 00:46:30;;;;;;;0.10;0.10;;;;;;;;;;4879375;29;20025;-62
2024/03/09 00:48:55;;;;;;;1.48;1.25;;;;;;;;;;4879619;29;20086;-62
2024/03/09 00:51:21;;;;;;;0.00;0.00;;;;;;;;;;4879499;29;20032;-62
2024/03/09 00:53:46;;;;;;;0.20;0.20;;;;;;;;;;4879494;29;20729;-68
2024/03/09 00:56:12;;;;;;;0.23;0.23;;;;;;;;;;4879278;29;20041;-67
2024/03/09 00:58:38;;;;;;;0.00;0.00;;;;;;;;;;4879151;29;20039;-67
2024/03/09 01:01:04;;;;;;;0.88;0.85;;;;;;;;;;4879164;29;20021;-67
2024/03/09 01:03:31;;;;;;;1.42;1.08;;;;;;;;;;4879226;29;20093;-67
2024/03/09 01:05:57;;;;;;;0.85;0.32;;;;;;;;;;4878721;29;20025;-67
2024/03/09 01:08:22;;;;;;;0.13;0.13;;;;;;;;;;4877194;29;20047;-67
2024/03/09 01:10:47;;;;;;;0.23;0.23;;;;;;;;;;4875318;29;20064;-67
2024/03/09 01:13:13;;;;;;;0.00;0.00;;;;;;;;;;4878844;29;20021;-67
2024/03/09 01:15:38;;;;;;;0.80;0.80;;;;;;;;;;4879089;29;20590;-67
2024/03/09 01:18:03;;;;;;;0.33;0.33;;;;;;;;;;4878845;29;20036;-66
2024/03/09 01:20:28;;;;;;;0.28;0.28;;;;;;;;;;4879055;29;20058;-67
2024/03/09 01:22:53;;;;;;;0.10;0.10;;;;;;;;;;4879175;29;20032;-67
2024/03/09 01:25:19;;;;;;;0.37;0.37;;;;;;;;;;4878957;29;20040;-68
2024/03/09 01:27:44;;;;;;;0.32;0.32;;;;;;;;;;4879204;29;20264;-68
2024/03/09 01:30:16;;;;;;;0.33;0.33;;;;;;;;;;4878868;29;20112;-67
2024/03/09 01:32:43;;;;;;;0.40;0.40;;;;;;;;;;4861953;29;20041;-67
2024/03/09 01:35:09;;;;;;;0.90;0.90;;;;;;;;;;4879184;29;20029;-67
2024/03/09 01:37:34;;;;;;;0.40;0.40;;;;;;;;;;4881483;29;20066;-67
2024/03/09 01:39:59;;;;;;;0.50;0.50;;;;;;;;;;4882471;29;20029;-67
2024/03/09 01:42:26;;;;;;;0.85;0.75;;;;;;;;;;4882635;29;20029;-67
2024/03/09 01:44:52;;;;;;;0.32;0.32;;;;;;;;;;4865613;29;20127;-67
2024/03/09 01:47:18;;;;;;;0.30;0.30;;;;;;;;;;4882472;29;20109;-68
2024/03/09 01:49:45;;;;;;;0.10;0.10;;;;;;;;;;4882238;29;20025;-66
2024/03/09 01:52:11;;;;;;;2.15;2.05;;;;;;;;;;4882269;29;20104;-67
2024/03/09 01:54:38;;;;;;;0.75;0.75;;;;;;;;;;4882385;29;20021;-68
2024/03/09 01:57:03;;;;;;;0.25;0.25;;;;;;;;;;4882361;29;20064;-67
2024/03/09 01:59:32;;;;;;;0.63;0.63;;;;;;;;;;4874642;29;20029;-67
2024/03/09 02:01:57;;;;;;;0.40;0.40;;;;;;;;;;4882485;29;20071;-67
2024/03/09 02:04:24;;;;;;;0.80;0.63;;;;;;;;;;4882175;29;20049;-67
2024/03/09 02:06:51;;;;;;;0.63;0.63;;;;;;;;;;4882385;29;20474;-68
2024/03/09 02:09:18;;;;;;;0.15;0.15;;;;;;;;;;4881881;29;20053;-67
2024/03/09 02:11:45;;;;;;;1.27;1.10;;;;;;;;;;4881922;29;20359;-67
2024/03/09 02:14:10;;;;;;;0.20;0.20;;;;;;;;;;4882294;29;20024;-67
2024/03/09 02:16:37;;;;;;;1.90;1.45;;;;;;;;;;4881996;29;20466;-67
2024/03/09 02:19:03;;;;;;;0.10;0.10;;;;;;;;;;4881954;29;20092;-67
2024/03/09 02:21:31;;;;;;;0.40;0.40;;;;;;;;;;4882152;29;20089;-67
2024/03/09 02:24:02;;;;;;;0.32;0.32;;;;;;;;;;4881973;29;20120;-67
2024/03/09 02:26:27;;;;;;;0.88;0.85;;;;;;;;;;4881949;29;20534;-67
2024/03/09 02:29:00;;;;;;;0.45;0.45;;;;;;;;;;4881483;29;20112;-68
2024/03/09 02:31:25;;;;;;;0.10;0.10;;;;;;;;;;4881728;29;20064;-67
2024/03/09 02:33:52;;;;;;;0.77;0.73;;;;;;;;;;4881703;29;20478;-67
2024/03/09 02:36:24;;;;;;;1.35;0.82;;;;;;;;;;4881361;29;20398;-67
2024/03/09 02:38:50;;;;;;;0.35;0.35;;;;;;;;;;4881576;29;20103;-68
2024/03/09 02:41:15;;;;;;;0.70;0.70;;;;;;;;;;4881338;29;20073;-67
2024/03/09 02:43:40;;;;;;;0.63;0.63;;;;;;;;;;4881564;29;20112;-67
2024/03/09 02:46:06;;;;;;;2.33;0.93;;;;;;;;;;4881556;29;20702;-67
2024/03/09 02:48:31;;;;;;;0.60;0.60;;;;;;;;;;4881139;29;20029;-67
2024/03/09 02:50:57;;;;;;;0.20;0.20;;;;;;;;;;4873972;29;20061;-67
2024/03/09 02:53:22;;;;;;;0.60;0.60;;;;;;;;;;4881368;29;20049;-68
2024/03/09 02:55:47;;;;;;;0.37;0.37;;;;;;;;;;4881737;29;20493;-67
2024/03/09 02:58:12;;;;;;;0.30;0.30;;;;;;;;;;4881668;29;20028;-67
2024/03/09 03:00:38;;;;;;;1.17;1.02;;;;;;;;;;4881629;29;20267;-67
2024/03/09 03:05:47;;;;;;;0.22;0.22;;;;;;;;;;4881183;29;20504;-67
2024/03/09 03:08:13;;;;;;;0.98;0.98;;;;;;;;;;4880860;29;20037;-68
2024/03/09 03:10:38;;;;;;;0.45;0.45;;;;;;;;;;4880689;29;20194;-67
2024/03/09 03:13:04;;;;;;;1.15;1.08;;;;;;;;;;4881235;29;20092;-67
2024/03/09 03:15:30;;;;;;;0.38;0.38;;;;;;;;;;4881001;29;20694;-67
2024/03/09 03:17:55;;;;;;;0.10;0.10;;;;;;;;;;4880699;29;20104;-67
2024/03/09 03:20:21;;;;;;;1.02;1.00;;;;;;;;;;4880512;29;20268;-67
2024/03/09 03:22:47;;;;;;;0.45;0.45;;;;;;;;;;4880661;29;20061;-67
2024/03/09 03:25:13;;;;;;;0.20;0.20;;;;;;;;;;4880870;29;20047;-67
2024/03/09 03:27:40;;;;;;;0.10;0.10;;;;;;;;;;4880420;29;20116;-67
2024/03/09 03:30:06;;;;;;;0.20;0.20;;;;;;;;;;4880896;29;20040;-67
2024/03/09 03:32:31;;;;;;;0.22;0.22;;;;;;;;;;4880643;29;20100;-66
2024/03/09 03:34:56;;;;;;;0.03;0.03;;;;;;;;;;4880381;29;20039;-67
2024/03/09 03:37:22;;;;;;;0.10;0.10;;;;;;;;;;4880653;29;20025;-68
2024/03/09 03:39:47;;;;;;;0.70;0.70;;;;;;;;;;4880653;29;20048;-67
2024/03/09 03:42:12;;;;;;;0.33;0.33;;;;;;;;;;4880581;29;20605;-67
2024/03/09 03:44:38;;;;;;;1.13;1.05;;;;;;;;;;4880478;29;20264;-67
2024/03/09 03:47:03;;;;;;;1.13;1.02;;;;;;;;;;4880036;29;20025;-67
2024/03/09 03:49:31;;;;;;;0.68;0.68;;;;;;;;;;4880279;29;20033;-67
2024/03/09 03:51:58;;;;;;;0.10;0.10;;;;;;;;;;4880552;29;20462;-67
2024/03/09 03:54:23;;;;;;;1.10;1.05;;;;;;;;;;4880411;29;20021;-67
2024/03/09 03:56:49;;;;;;;1.48;1.38;;;;;;;;;;4880209;29;20028;-67
2024/03/09 03:59:14;;;;;;;0.00;0.00;;;;;;;;;;4879245;29;20033;-67
2024/03/09 04:01:46;;;;;;;0.43;0.32;;;;;;;;;;4879876;29;20080;-67
2024/03/09 04:04:12;;;;;;;1.20;0.93;;;;;;;;;;4880129;29;20067;-67
2024/03/09 04:06:39;;;;;;;0.45;0.45;;;;;;;;;;4880126;29;20040;-67
2024/03/09 04:09:17;;;;;;;0.20;0.20;;;;;;;;;;4879630;29;20029;-67
2024/03/09 04:11:43;;;;;;;0.73;0.73;;;;;;;;;;4879394;29;20033;-67
2024/03/09 04:14:09;;;;;;;0.15;0.15;;;;;;;;;;4879695;29;20518;-67
2024/03/09 04:16:34;;;;;;;0.20;0.20;;;;;;;;;;4880014;29;20033;-67
2024/03/09 04:19:02;;;;;;;0.53;0.53;;;;;;;;;;4879872;29;20039;-67
2024/03/09 04:21:27;;;;;;;1.92;1.17;;;;;;;;;;4879542;29;20260;-67
2024/03/09 04:23:52;;;;;;;0.20;0.20;;;;;;;;;;4879891;29;20028;-67
2024/03/09 04:26:17;;;;;;;0.37;0.37;;;;;;;;;;4879418;29;20032;-67
2024/03/09 04:28:43;;;;;;;1.27;0.97;;;;;;;;;;4879552;29;20091;-67
2024/03/09 04:31:09;;;;;;;0.20;0.20;;;;;;;;;;4879487;29;20021;-67
2024/03/09 04:33:34;;;;;;;0.32;0.32;;;;;;;;;;4879534;29;20413;-67
2024/03/09 04:35:59;;;;;;;0.20;0.20;;;;;;;;;;4879594;29;20078;-67
2024/03/09 04:38:27;;;;;;;0.30;0.30;;;;;;;;;;4879447;29;20340;-66
2024/03/09 04:40:52;;;;;;;0.38;0.38;;;;;;;;;;4879496;29;20352;-67
2024/03/09 04:43:18;;;;;;;0.63;0.63;;;;;;;;;;4879283;29;20048;-67
2024/03/09 04:45:45;;;;;;;0.30;0.30;;;;;;;;;;4879128;29;20363;-68
2024/03/09 04:48:10;;;;;;;0.10;0.10;;;;;;;;;;4879460;29;20077;-67
2024/03/09 04:50:38;;;;;;;0.10;0.10;;;;;;;;;;4879467;29;20423;-67
2024/03/09 04:53:06;;;;;;;1.30;1.20;;;;;;;;;;4879955;29;20025;-67
2024/03/09 04:55:31;;;;;;;0.15;0.15;;;;;;;;;;4879862;29;20385;-67
2024/03/09 04:57:57;;;;;;;0.65;0.65;;;;;;;;;;4879052;29;20100;-66
2024/03/09 05:00:24;;;;;;;0.30;0.30;;;;;;;;;;4879414;29;20493;-67
2024/03/09 05:02:49;;;;;;;0.57;0.57;;;;;;;;;;4879548;29;20111;-67
2024/03/09 05:05:17;;;;;;;0.63;0.63;;;;;;;;;;4879016;29;20458;-67
2024/03/09 05:07:43;;;;;;;1.55;1.27;;;;;;;;;;4879469;29;20108;-67
2024/03/09 05:10:08;;;;;;;0.35;0.35;;;;;;;;;;4878677;29;20048;-67
2024/03/09 05:12:34;;;;;;;0.57;0.57;;;;;;;;;;4878867;29;20025;-67
2024/03/09 05:14:59;;;;;;;2.03;1.92;;;;;;;;;;4879154;29;20021;-67
2024/03/09 05:17:24;;;;;;;0.30;0.30;;;;;;;;;;4879309;29;20029;-67
2024/03/09 05:19:50;;;;;;;0.32;0.32;;;;;;;;;;4878207;29;20177;-67
2024/03/09 05:22:15;;;;;;;0.57;0.57;;;;;;;;;;4878649;29;20036;-67
2024/03/09 05:24:40;;;;;;;1.07;1.07;;;;;;;;;;4878606;29;20482;-67
2024/03/09 05:27:07;;;;;;;0.35;0.30;;;;;;;;;;4878703;29;20040;-67
2024/03/09 05:29:32;;;;;;;0.57;0.57;;;;;;;;;;4878750;29;20064;-67
2024/03/09 05:31:57;;;;;;;2.40;1.02;;;;;;;;;;4878715;29;20071;-67
2024/03/09 05:34:22;;;;;;;0.20;0.20;;;;;;;;;;4878940;29;20017;-67
2024/03/09 05:36:48;;;;;;;0.53;0.53;;;;;;;;;;4878953;29;20029;-67
2024/03/09 05:39:15;;;;;;;0.40;0.40;;;;;;;;;;4878968;29;20044;-67
2024/03/09 05:41:40;;;;;;;0.15;0.15;;;;;;;;;;4878442;29;20104;-67
2024/03/09 05:44:05;;;;;;;0.20;0.20;;;;;;;;;;4878756;29;20103;-67
2024/03/09 05:46:31;;;;;;;1.73;1.27;;;;;;;;;;4878621;29;20029;-67
2024/03/09 05:48:56;;;;;;;0.30;0.30;;;;;;;;;;4878835;29;20073;-67
2024/03/09 05:51:21;;;;;;;0.20;0.20;;;;;;;;;;4879012;29;20336;-67
2024/03/09 05:53:49;;;;;;;0.40;0.40;;;;;;;;;;4878478;29;20383;-67
2024/03/09 05:56:14;;;;;;;0.90;0.88;;;;;;;;;;4878807;29;20103;-67
2024/03/09 05:58:40;;;;;;;0.25;0.25;;;;;;;;;;4878491;29;20530;-68
2024/03/09 06:01:05;;;;;;;0.10;0.10;;;;;;;;;;4878596;29;20037;-67
2024/03/09 06:03:30;;;;;;;0.90;0.77;;;;;;;;;;4877337;29;20029;-67
2024/03/09 06:05:56;;;;;;;0.63;0.63;;;;;;;;;;4877086;29;20025;-67
2024/03/09 06:08:21;;;;;;;1.65;1.35;;;;;;;;;;4877650;29;20060;-67
2024/03/09 06:10:49;;;;;;;0.52;0.52;;;;;;;;;;4876915;29;20049;-67
2024/03/09 06:13:17;;;;;;;0.10;0.10;;;;;;;;;;4876433;29;20029;-67
2024/03/09 06:15:43;;;;;;;0.75;0.63;;;;;;;;;;4877270;29;20387;-67
2024/03/09 06:18:08;;;;;;;0.20;0.20;;;;;;;;;;4877166;29;20070;-67
2024/03/09 06:20:34;;;;;;;0.47;0.47;;;;;;;;;;4877270;29;20021;-67
2024/03/09 06:23:00;;;;;;;0.45;0.45;;;;;;;;;;4878848;29;20085;-67
2024/03/09 06:25:29;;;;;;;0.20;0.20;;;;;;;;;;4880699;29;20032;-67
2024/03/09 06:27:59;;;;;;;0.38;0.32;;;;;;;;;;4880473;29;20033;-67
2024/03/09 06:30:26;;;;;;;0.40;0.35;;;;;;;;;;4880043;29;20037;-67
2024/03/09 06:32:53;;;;;;;0.20;0.20;;;;;;;;;;4881366;29;20029;-67
2024/03/09 06:35:25;;;;;;;4.90;1.17;;;;;;;;;;4881566;29;20075;-68
2024/03/09 06:38:04;;;;;;;0.90;0.90;;;;;;;;;;4880746;29;20089;-67
2024/03/09 06:40:34;;;;;;;0.10;0.10;;;;;;;;;;4873844;29;20033;-66
2024/03/09 06:43:03;;;;;;;0.88;0.88;;;;;;;;;;4869233;29;20029;-66
2024/03/09 06:45:28;;;;;;;0.10;0.10;;;;;;;;;;4871865;29;20041;-66
2024/03/09 06:47:54;;;;;;;0.10;0.10;;;;;;;;;;4867998;29;20029;-66
2024/03/09 06:50:19;;;;;;;0.10;0.10;;;;;;;;;;4870286;29;20100;-66
2024/03/09 06:52:46;;;;;;;2.42;1.23;;;;;;;;;;4871762;29;20499;-73
2024/03/09 06:55:12;;;;;;;0.13;0.13;;;;;;;;;;4859937;29;20017;-75
2024/03/09 06:57:37;;;;;;;1.08;0.85;;;;;;;;;;4880604;29;20025;-74
2024/03/09 07:00:11;;;;;;;0.40;0.40;;;;;;;;;;4874054;29;20080;-67
2024/03/09 07:02:37;;;;;;;0.40;0.40;;;;;;;;;;4867826;29;20264;-67
2024/03/09 07:05:04;;;;;;;0.93;0.85;;;;;;;;;;4876343;29;20028;-66
2024/03/09 07:07:30;;;;;;;1.25;1.15;;;;;;;;;;4873688;29;20470;-66
2024/03/09 07:09:55;;;;;;;2.65;1.38;;;;;;;;;;4872243;29;20050;-67
2024/03/09 07:12:21;;;;;;;0.43;0.43;;;;;;;;;;4879719;29;20017;-66
2024/03/09 07:14:46;;;;;;;0.65;0.60;;;;;;;;;;4872033;29;20255;-66
2024/03/09 07:17:17;;;;;;;1.27;1.05;;;;;;;;;;4875265;29;20021;-68
2024/03/09 07:19:42;;;;;;;1.17;1.08;;;;;;;;;;4875238;29;20471;-66
2024/03/09 07:22:07;;;;;;;0.83;0.83;;;;;;;;;;4867960;29;20078;-67
2024/03/09 07:24:32;;;;;;;0.63;0.43;;;;;;;;;;4868257;29;20029;-67
2024/03/09 07:26:59;;;;;;;0.33;0.33;;;;;;;;;;4875461;29;20043;-67
2024/03/09 07:29:25;;;;;;;1.38;1.00;;;;;;;;;;4868372;29;20353;-67
2024/03/09 07:31:50;;;;;;;1.70;1.13;;;;;;;;;;4876326;29;20059;-67
2024/03/09 07:34:17;;;;;;;0.60;0.45;;;;;;;;;;4876859;29;20048;-67
2024/03/09 07:36:43;;;;;;;0.52;0.52;;;;;;;;;;4877434;29;20081;-67
2024/03/09 07:39:15;;;;;;;0.67;0.60;;;;;;;;;;4871717;29;20022;-66
2024/03/09 07:41:42;;;;;;;0.50;0.50;;;;;;;;;;4871471;29;20259;-66
2024/03/09 07:44:07;;;;;;;0.55;0.55;;;;;;;;;;4874180;29;20028;-67
2024/03/09 07:46:34;;;;;;;1.55;1.05;;;;;;;;;;4879882;29;20025;-67
2024/03/09 07:48:59;;;;;;;1.10;0.95;;;;;;;;;;4875805;29;20039;-78
2024/03/09 07:51:24;;;;;;;1.13;1.02;;;;;;;;;;4876237;29;20033;-77
2024/03/09 07:53:52;;;;;;;0.65;0.65;;;;;;;;;;4876951;29;20486;-75
2024/03/09 07:56:18;;;;;;;0.32;0.32;;;;;;;;;;4876719;29;20025;-76
2024/03/09 07:58:44;;;;;;;0.65;0.65;;;;;;;;;;4876990;29;20021;-76
2024/03/09 08:01:10;;;;;;;0.50;0.50;;;;;;;;;;4879060;29;20028;-76
2024/03/09 08:03:36;;;;;;;0.60;0.60;;;;;;;;;;4872526;29;20033;-76
2024/03/09 08:06:02;;;;;;;1.17;1.08;;;;;;;;;;4870845;29;20028;-76
2024/03/09 08:08:27;;;;;;;0.55;0.55;;;;;;;;;;4874625;29;20029;-76
2024/03/09 08:10:53;;;;;;;1.97;1.27;;;;;;;;;;4872531;29;20057;-76
2024/03/09 08:13:25;;;;;;;5.53;1.15;;;;;;;;;;4876192;29;20021;-76
2024/03/09 08:15:52;;;;;;;0.30;0.30;;;;;;;;;;4870364;29;20029;-64
2024/03/09 08:18:18;;;;;;;1.27;1.17;;;;;;;;;;4876061;29;20040;-77
2024/03/09 08:20:43;;;;;;;1.35;1.05;;;;;;;;;;4871969;29;20389;-64
2024/03/09 08:23:09;;;;;;;1.65;1.10;;;;;;;;;;4873395;29;20157;-64
2024/03/09 08:25:36;;;;;;;2.60;1.93;;;;;;;;;;4876726;29;20021;-65
2024/03/09 08:28:01;;;;;;;2.15;1.45;;;;;;;;;;4876321;29;20275;-64
2024/03/09 08:30:26;;;;;;;2.75;2.13;;;;;;;;;;4868341;29;20030;-64
2024/03/09 08:32:58;;;;;;;0.88;0.82;;;;;;;;;;4871405;29;20029;-64
2024/03/09 08:35:24;;;;;;;1.20;1.10;;;;;;;;;;4869832;29;20470;-64
2024/03/09 08:37:52;;;;;;;0.70;0.68;;;;;;;;;;4875948;29;20031;-64
2024/03/09 08:40:18;;;;;;;1.08;0.98;;;;;;;;;;4875403;29;20025;-64
2024/03/09 08:42:44;;;;;;;2.83;1.98;;;;;;;;;;4868316;29;20427;-64
2024/03/09 08:45:09;;;;;;;0.30;0.30;;;;;;;;;;4872841;29;20029;-64
2024/03/09 08:47:35;;;;;;;0.95;0.93;;;;;;;;;;4876406;29;20400;-64
2024/03/09 08:50:00;;;;;;;0.52;0.52;;;;;;;;;;4875441;29;20031;-64
2024/03/09 08:52:26;;;;;;;0.77;0.77;;;;;;;;;;4873461;29;20025;-64
2024/03/09 08:54:51;;;;;;;4.95;2.83;;;;;;;;;;4877233;29;20291;-63
2024/03/09 08:57:19;;;;;;;1.30;1.20;;;;;;;;;;4877299;29;20021;-64
2024/03/09 08:59:51;;;;;;;0.77;0.75;;;;;;;;;;4878098;29;20264;-64
2024/03/09 09:02:18;;;;;;;1.15;0.82;;;;;;;;;;4870784;29;20029;-64
2024/03/09 09:04:43;;;;;;;1.13;1.02;;;;;;;;;;4876032;29;20055;-64
2024/03/09 09:07:08;;;;;;;0.63;0.63;;;;;;;;;;4876299;29;20052;-64
2024/03/09 09:09:33;;;;;;;1.07;0.97;;;;;;;;;;4874430;29;20277;-64
2024/03/09 09:12:01;;;;;;;2.40;1.23;;;;;;;;;;4878154;29;20032;-64
2024/03/09 09:14:27;;;;;;;1.08;0.88;;;;;;;;;;4874873;29;20382;-64
2024/03/09 09:16:53;;;;;;;0.98;0.65;;;;;;;;;;4876222;29;20029;-64
2024/03/09 09:19:19;;;;;;;0.57;0.57;;;;;;;;;;4865472;29;20495;-64
2024/03/09 09:21:44;;;;;;;0.85;0.85;;;;;;;;;;4870329;29;20033;-64
2024/03/09 09:24:09;;;;;;;5.28;0.65;;;;;;;;;;4873265;29;20106;-64
2024/03/09 09:26:34;;;;;;;0.60;0.53;;;;;;;;;;4873029;29;20497;-64
2024/03/09 09:29:02;;;;;;;0.83;0.70;;;;;;;;;;4870504;29;20029;-64
2024/03/09 09:31:28;;;;;;;0.75;0.75;;;;;;;;;;4873438;29;21352;-64
2024/03/09 09:33:54;;;;;;;0.70;0.70;;;;;;;;;;4868194;29;20390;-64
2024/03/09 09:36:19;;;;;;;0.80;0.80;;;;;;;;;;4876697;29;20021;-64
2024/03/09 09:38:47;;;;;;;2.83;1.75;;;;;;;;;;4875445;29;20036;-64
2024/03/09 09:41:13;;;;;;;2.53;1.55;;;;;;;;;;4877004;29;20029;-64
2024/03/09 09:43:38;;;;;;;3.13;1.48;;;;;;;;;;4875949;29;20036;-64
2024/03/09 09:46:04;;;;;;;0.25;0.25;;;;;;;;;;4872769;29;20410;-64
2024/03/09 09:48:32;;;;;;;1.05;0.82;;;;;;;;;;4873373;29;20040;-64
2024/03/09 09:50:58;;;;;;;0.55;0.43;;;;;;;;;;4870367;29;20037;-64
2024/03/09 09:53:23;;;;;;;0.50;0.50;;;;;;;;;;4874488;29;20033;-64
2024/03/09 09:55:48;;;;;;;1.95;1.58;;;;;;;;;;4875713;29;20018;-64
2024/03/09 09:58:14;;;;;;;2.17;1.80;;;;;;;;;;4877223;29;20092;-64
2024/03/09 10:00:40;;;;;;;1.42;1.10;;;;;;;;;;4881366;29;20448;-64
2024/03/09 10:03:05;;;;;;;1.13;0.90;;;;;;;;;;4881336;29;20031;-63
2024/03/09 10:05:31;;;;;;;4.75;1.15;;;;;;;;;;4877330;29;20026;-63
2024/03/09 10:07:58;;;;;;;0.77;0.77;;;;;;;;;;4873342;29;20041;-63
2024/03/09 10:10:27;;;;;;;0.35;0.35;;;;;;;;;;4874212;29;20060;-63
2024/03/09 10:13:02;;;;;;;1.05;0.95;;;;;;;;;;4873304;29;20158;-63
2024/03/09 10:15:27;;;;;;;0.13;0.13;;;;;;;;;;4876559;29;20017;-68
2024/03/09 10:17:53;;;;;;;0.80;0.80;;;;;;;;;;4876813;29;20382;-68
2024/03/09 10:20:20;;;;;;;0.97;0.87;;;;;;;;;;4873689;29;20024;-69
2024/03/09 10:22:45;;;;;;;0.25;0.25;;;;;;;;;;4880801;29;20516;-69
2024/03/09 10:25:10;;;;;;;1.17;0.90;;;;;;;;;;4879201;29;20116;-66
2024/03/09 10:27:35;;;;;;;1.07;0.73;;;;;;;;;;4872671;29;20040;-69
2024/03/09 10:30:15;;;;;;;1.30;1.13;;;;;;;;;;4868189;29;20032;-78
2024/03/09 10:32:43;;;;;;;0.80;0.52;;;;;;;;;;4873537;29;20048;-68
2024/03/09 10:35:09;;;;;;;0.40;0.40;;;;;;;;;;4869941;29;20025;-68
2024/03/09 10:37:37;;;;;;;1.23;0.93;;;;;;;;;;4880017;29;20031;-68
2024/03/09 10:40:06;;;;;;;1.67;1.38;;;;;;;;;;4870898;29;20475;-69
2024/03/09 10:42:32;;;;;;;2.55;0.52;;;;;;;;;;4877613;29;20028;-67
2024/03/09 10:44:59;;;;;;;2.22;1.75;;;;;;;;;;4868435;29;20112;-68
2024/03/09 10:47:25;;;;;;;0.88;0.88;;;;;;;;;;4879341;29;20025;-68
2024/03/09 10:49:52;;;;;;;1.13;1.08;;;;;;;;;;4877956;29;20157;-68
2024/03/09 10:52:19;;;;;;;1.20;0.80;;;;;;;;;;4879127;29;20073;-69
2024/03/09 10:54:52;;;;;;;0.22;0.22;;;;;;;;;;4870728;29;20104;-68
2024/03/09 10:57:21;;;;;;;3.85;1.73;;;;;;;;;;4874307;29;20102;-69
2024/03/09 10:59:47;;;;;;;0.63;0.40;;;;;;;;;;4880793;29;20060;-69
2024/03/09 11:02:13;;;;;;;1.58;0.85;;;;;;;;;;4873751;29;20458;-69
2024/03/09 11:04:38;;;;;;;0.25;0.25;;;;;;;;;;4876952;29;20089;-68
2024/03/09 11:07:04;;;;;;;0.57;0.38;;;;;;;;;;4877178;29;20032;-68
2024/03/09 11:09:30;;;;;;;0.47;0.45;;;;;;;;;;4873558;29;20036;-75
2024/03/09 11:11:56;;;;;;;1.25;1.02;;;;;;;;;;4876064;29;20097;-75
2024/03/09 11:14:23;;;;;;;0.10;0.10;;;;;;;;;;4877195;29;20020;-74
2024/03/09 11:16:55;;;;;;;2.20;1.95;;;;;;;;;;4873506;29;20013;-74
2024/03/09 11:19:20;;;;;;;;;;;;;;;;;;4878715;29;20032;-75
2024/03/09 11:21:48;;;;;;;0.10;0.10;;;;;;;;;;4852723;29;20296;-77
2024/03/09 11:24:14;;;;;;;0.00;0.00;;;;;;;;;;4863841;29;20021;-77
2024/03/09 11:26:50;;;;;;;0.17;0.17;;;;;;;;;;4859368;29;20394;-76
2024/03/09 11:29:23;;;;;;;0.10;0.10;;;;;;;;;;4854956;29;20411;-76
2024/03/09 11:31:55;;;;;;;0.10;0.10;;;;;;;;;;4851369;29;20070;-76
2024/03/09 11:34:26;;;;;;;0.30;0.30;;;;;;;;;;4874119;29;20073;-76
2024/03/09 11:36:55;;;;;;;1.83;0.63;;;;;;;;;;4876092;29;20472;-75
2024/03/09 11:39:39;;;;;;;0.38;0.32;;;;;;;;;;4850823;29;20272;-77
2024/03/09 11:42:08;;;;;;;2.30;1.60;;;;;;;;;;4875120;29;20029;-76
2024/03/09 11:44:36;;;;;;;0.28;0.28;;;;;;;;;;4854516;29;20030;-76
2024/03/09 11:47:03;;;;;;;0.30;0.30;;;;;;;;;;4855441;29;20021;-76
2024/03/09 11:49:28;;;;;;;0.40;0.40;;;;;;;;;;4879651;29;20029;-76
2024/03/09 11:51:55;;;;;;;0.10;0.10;;;;;;;;;;4877753;29;20021;-76
2024/03/09 11:54:20;;;;;;;0.25;0.10;;;;;;;;;;4877183;29;20021;-76
2024/03/09 11:56:46;;;;;;;0.13;0.13;;;;;;;;;;4862692;29;20036;-76
2024/03/09 11:59:12;;;;;;;0.25;0.15;;;;;;;;;;4874328;29;20260;-77
2024/03/09 12:01:39;;;;;;;0.50;0.50;;;;;;;;;;4854699;29;20062;-77
2024/03/09 12:04:05;;;;;;;0.47;0.47;;;;;;;;;;4856166;29;20081;-77
2024/03/09 12:06:30;;;;;;;0.10;0.10;;;;;;;;;;4877806;29;20033;-76
2024/03/09 12:08:56;;;;;;;0.90;0.65;;;;;;;;;;4876410;29;20040;-75
2024/03/09 12:11:23;;;;;;;0.20;0.20;;;;;;;;;;4875959;29;20056;-75
2024/03/09 12:13:49;;;;;;;0.20;0.20;;;;;;;;;;4874330;29;20025;-74
2024/03/09 12:16:15;;;;;;;0.70;0.52;;;;;;;;;;4879532;29;20019;-65
2024/03/09 12:18:42;;;;;;;0.20;0.20;;;;;;;;;;4878355;29;20033;-68
2024/03/09 12:21:08;;;;;;;0.52;0.52;;;;;;;;;;4874364;29;20526;-67
2024/03/09 12:23:34;;;;;;;0.10;0.10;;;;;;;;;;4877092;29;20112;-66
2024/03/09 12:26:00;;;;;;;0.10;0.10;;;;;;;;;;4876008;29;20109;-67
2024/03/09 12:28:27;;;;;;;0.77;0.28;;;;;;;;;;4873463;29;20067;-67
2024/03/09 12:30:53;;;;;;;0.10;0.10;;;;;;;;;;4873104;29;20033;-68
2024/03/09 12:33:18;;;;;;;0.52;0.50;;;;;;;;;;4872437;29;20029;-67
2024/03/09 12:35:46;;;;;;;0.10;0.10;;;;;;;;;;4875232;29;20025;-64
2024/03/09 12:38:14;;;;;;;0.63;0.63;;;;;;;;;;4878527;29;20308;-63
2024/03/09 12:40:45;;;;;;;0.60;0.60;;;;;;;;;;4870382;29;20127;-64
2024/03/09 12:43:12;;;;;;;0.38;0.38;;;;;;;;;;4873863;29;20412;-64
2024/03/09 12:45:38;;;;;;;0.30;0.30;;;;;;;;;;4869429;29;20033;-64
2024/03/09 12:48:03;;;;;;;0.30;0.30;;;;;;;;;;4875532;29;20096;-64
2024/03/09 12:50:31;;;;;;;1.15;0.75;;;;;;;;;;4871598;29;20084;-64
2024/03/09 12:52:59;;;;;;;0.20;0.20;;;;;;;;;;4868775;29;20550;-64
2024/03/09 12:55:25;;;;;;;0.25;0.22;;;;;;;;;;4872616;29;20033;-64
2024/03/09 12:57:54;;;;;;;0.20;0.20;;;;;;;;;;4870476;29;20021;-64
2024/03/09 13:00:20;;;;;;;0.35;0.32;;;;;;;;;;4871867;29;20032;-63
2024/03/09 13:02:49;;;;;;;0.20;0.20;;;;;;;;;;4873261;29;20029;-80
2024/03/09 13:05:21;;;;;;;2.17;0.98;;;;;;;;;;4876878;29;20526;-76
2024/03/09 13:07:48;;;;;;;0.20;0.20;;;;;;;;;;4872252;29;20462;-75
2024/03/09 13:10:24;;;;;;;0.10;0.10;;;;;;;;;;4872173;29;20060;-64
2024/03/09 13:12:49;;;;;;;7.50;0.55;;;;;;;;;;4872709;29;20087;-64
2024/03/09 13:15:20;;;;;;;0.10;0.10;;;;;;;;;;4876207;29;20490;-64
2024/03/09 13:17:49;;;;;;;0.08;0.08;;;;;;;;;;4874678;29;20059;-63
2024/03/09 13:20:17;;;;;;;0.30;0.30;;;;;;;;;;4872115;29;20058;-64
2024/03/09 13:22:47;;;;;;;0.20;0.15;;;;;;;;;;4871170;29;20025;-63
2024/03/09 13:25:12;;;;;;;0.77;0.52;;;;;;;;;;4872739;29;20029;-63
2024/03/09 13:27:38;;;;;;;0.20;0.20;;;;;;;;;;4868360;29;20031;-63
2024/03/09 13:30:16;;;;;;;0.10;0.10;;;;;;;;;;4877356;29;20455;-63
2024/03/09 13:32:45;;;;;;;0.00;0.00;;;;;;;;;;4874920;29;20112;-64
2024/03/09 13:35:12;;;;;;;0.05;0.05;;;;;;;;;;4881001;29;20100;-64
2024/03/09 13:37:40;;;;;;;0.10;0.10;;;;;;;;;;4878136;29;20116;-64
2024/03/09 13:40:05;;;;;;;0.05;0.05;;;;;;;;;;4882127;29;20029;-63
2024/03/09 13:42:30;;;;;;;0.95;0.65;;;;;;;;;;4875930;29;20390;-64
2024/03/09 13:44:56;;;;;;;0.00;0.00;;;;;;;;;;4881178;29;20033;-75
2024/03/09 13:47:21;;;;;;;0.38;0.28;;;;;;;;;;4864296;29;20507;-63
2024/03/09 13:49:46;;;;;;;0.83;0.67;;;;;;;;;;4879857;29;20089;-63
2024/03/09 13:52:11;;;;;;;0.57;0.33;;;;;;;;;;4878213;29;20271;-64
2024/03/09 13:54:37;;;;;;;0.10;0.10;;;;;;;;;;4876800;29;20354;-76
2024/03/09 13:57:02;;;;;;;0.10;0.10;;;;;;;;;;4878050;29;20377;-65
2024/03/09 13:59:28;;;;;;;0.15;0.15;;;;;;;;;;4879473;29;20044;-64
2024/03/09 14:01:55;;;;;;;0.00;0.00;;;;;;;;;;4873463;29;20131;-64
2024/03/09 14:04:20;;;;;;;0.20;0.20;;;;;;;;;;4872394;29;20382;-64
2024/03/09 14:06:46;;;;;;;1.25;0.95;;;;;;;;;;4878123;29;20072;-64
2024/03/09 14:09:11;;;;;;;1.60;1.40;;;;;;;;;;4876466;29;20043;-64
2024/03/09 14:11:36;;;;;;;0.55;0.47;;;;;;;;;;4874387;29;20307;-64
2024/03/09 14:14:08;;;;;;;0.37;0.37;;;;;;;;;;4876490;29;20032;-64
2024/03/09 14:16:33;;;;;;;0.20;0.15;;;;;;;;;;4873977;29;20061;-64
2024/03/09 14:18:58;;;;;;;1.33;1.03;;;;;;;;;;4863022;29;20105;-64
2024/03/09 14:21:25;;;;;;;0.30;0.30;;;;;;;;;;4874590;29;20366;-64
2024/03/09 14:23:51;;;;;;;0.68;0.68;;;;;;;;;;4881587;29;20377;-64
2024/03/09 14:26:17;;;;;;;0.28;0.20;;;;;;;;;;4881320;29;20438;-64
2024/03/09 14:28:42;;;;;;;1.75;0.80;;;;;;;;;;4879640;29;20370;-64
2024/03/09 14:31:08;;;;;;;0.45;0.40;;;;;;;;;;4878590;29;20032;-64
2024/03/09 14:33:34;;;;;;;0.55;0.55;;;;;;;;;;4879206;29;20062;-64
2024/03/09 14:35:59;;;;;;;0.25;0.25;;;;;;;;;;4879382;29;20044;-64
2024/03/09 14:38:25;;;;;;;0.00;0.00;;;;;;;;;;4879742;29;20033;-64
2024/03/09 14:40:51;;;;;;;0.85;0.82;;;;;;;;;;4878528;29;20029;-64